createdAt,value
2018-07-07T00:01:01.372Z,43.40
2018-07-07T00:02:06.175Z,43.50
2018-07-07T00:03:11.147Z,43.30
2018-07-07T00:04:16.078Z,43.50
2018-07-07T00:05:21.065Z,43.50
2018-07-07T00:06:25.914Z,43.50
2018-07-07T00:07:30.887Z,43.50
2018-07-07T00:08:35.628Z,43.50
2018-07-07T00:09:40.620Z,43.50
2018-07-07T00:10:45.440Z,43.50
2018-07-07T00:11:50.382Z,43.50
2018-07-07T00:12:55.200Z,43.50
2018-07-07T00:14:00.122Z,43.50
2018-07-07T00:15:05.058Z,43.50
2018-07-07T00:16:10.007Z,43.50
2018-07-07T00:17:14.891Z,43.50
2018-07-07T00:18:19.832Z,43.50
2018-07-07T00:19:24.647Z,43.50
2018-07-07T00:20:29.512Z,43.60
2018-07-07T00:21:34.309Z,43.60
2018-07-07T00:22:39.572Z,43.60
2018-07-07T00:23:44.407Z,43.60
2018-07-07T00:24:49.358Z,43.60
2018-07-07T00:25:54.104Z,43.60
2018-07-07T00:26:58.922Z,43.60
2018-07-07T00:28:03.917Z,43.60
2018-07-07T00:29:08.897Z,43.60
2018-07-07T00:30:13.978Z,43.60
2018-07-07T00:31:18.903Z,43.60
2018-07-07T00:32:23.931Z,43.60
2018-07-07T00:33:29.074Z,43.60
2018-07-07T00:34:33.944Z,43.60
2018-07-07T00:35:38.720Z,43.60
2018-07-07T00:36:43.678Z,43.70
2018-07-07T00:37:48.525Z,43.70
2018-07-07T00:38:53.404Z,43.70
2018-07-07T00:39:58.367Z,43.60
2018-07-07T00:41:03.231Z,43.70
2018-07-07T00:42:08.009Z,43.70
2018-07-07T00:43:13.034Z,43.70
2018-07-07T00:44:17.836Z,43.80
2018-07-07T00:45:22.721Z,43.80
2018-07-07T00:46:27.491Z,43.90
2018-07-07T00:47:32.707Z,43.90
2018-07-07T00:48:37.482Z,43.90
2018-07-07T00:49:42.302Z,44.00
2018-07-07T00:50:47.253Z,43.90
2018-07-07T00:51:52.260Z,43.90
2018-07-07T00:52:57.205Z,44.00
2018-07-07T00:54:02.217Z,44.00
2018-07-07T00:55:07.213Z,44.00
2018-07-07T00:56:12.049Z,44.00
2018-07-07T00:57:16.830Z,44.10
2018-07-07T00:58:21.640Z,44.10
2018-07-07T00:59:26.444Z,44.10
2018-07-07T01:00:31.324Z,44.10
2018-07-07T01:01:36.072Z,44.20
2018-07-07T01:02:41.126Z,44.10
2018-07-07T01:03:46.037Z,44.10
2018-07-07T01:04:51.085Z,44.20
2018-07-07T01:05:55.969Z,44.20
2018-07-07T01:07:00.743Z,44.20
2018-07-07T01:08:05.681Z,44.20
2018-07-07T01:09:10.502Z,44.20
2018-07-07T01:10:15.383Z,44.20
2018-07-07T01:11:20.180Z,44.20
2018-07-07T01:12:24.979Z,44.30
2018-07-07T01:13:29.731Z,44.30
2018-07-07T01:14:34.523Z,44.30
2018-07-07T01:15:39.525Z,44.30
2018-07-07T01:16:44.308Z,44.40
2018-07-07T01:17:49.361Z,44.30
2018-07-07T01:18:54.093Z,44.40
2018-07-07T01:19:58.882Z,44.30
2018-07-07T01:21:03.736Z,44.30
2018-07-07T01:22:08.499Z,44.40
2018-07-07T01:23:13.273Z,44.40
2018-07-07T01:24:17.977Z,44.40
2018-07-07T01:25:22.791Z,44.40
2018-07-07T01:26:27.694Z,44.40
2018-07-07T01:27:32.660Z,44.40
2018-07-07T01:28:37.511Z,44.40
2018-07-07T01:29:42.407Z,44.40
2018-07-07T01:30:47.576Z,44.40
2018-07-07T01:31:52.359Z,44.50
2018-07-07T01:32:57.250Z,44.50
2018-07-07T01:34:02.018Z,44.50
2018-07-07T01:35:06.909Z,44.50
2018-07-07T01:36:11.794Z,44.50
2018-07-07T01:37:16.509Z,44.50
2018-07-07T01:38:21.405Z,44.50
2018-07-07T01:39:26.192Z,44.60
2018-07-07T01:40:30.919Z,44.60
2018-07-07T01:41:35.635Z,44.60
2018-07-07T01:42:40.559Z,44.60
2018-07-07T01:43:45.306Z,44.60
2018-07-07T01:44:50.362Z,44.60
2018-07-07T01:45:55.151Z,44.60
2018-07-07T01:47:00.182Z,44.60
2018-07-07T01:48:05.012Z,44.60
2018-07-07T01:49:09.767Z,44.50
2018-07-07T01:50:14.561Z,44.60
2018-07-07T01:51:19.351Z,44.70
2018-07-07T01:52:24.249Z,44.60
2018-07-07T01:53:29.141Z,44.70
2018-07-07T01:54:33.914Z,44.70
2018-07-07T01:55:38.676Z,44.70
2018-07-07T01:56:43.493Z,44.70
2018-07-07T01:57:48.440Z,44.70
2018-07-07T01:58:53.235Z,44.70
2018-07-07T01:59:57.995Z,44.70
2018-07-07T02:01:02.833Z,44.70
2018-07-07T02:02:07.782Z,44.70
2018-07-07T02:03:12.605Z,44.70
2018-07-07T02:04:17.801Z,44.70
2018-07-07T02:05:22.766Z,44.80
2018-07-07T02:06:27.529Z,44.80
2018-07-07T02:07:32.315Z,44.80
2018-07-07T02:08:37.242Z,44.80
2018-07-07T02:09:41.993Z,44.80
2018-07-07T02:10:46.763Z,44.80
2018-07-07T02:11:51.567Z,44.80
2018-07-07T02:12:56.432Z,44.80
2018-07-07T02:14:01.193Z,44.80
2018-07-07T02:15:06.011Z,44.90
2018-07-07T02:16:10.792Z,44.90
2018-07-07T02:17:15.577Z,44.80
2018-07-07T02:18:20.472Z,44.80
2018-07-07T02:19:25.380Z,44.80
2018-07-07T02:20:30.296Z,44.80
2018-07-07T02:21:35.309Z,44.90
2018-07-07T02:22:40.293Z,44.90
2018-07-07T02:23:45.035Z,44.90
2018-07-07T02:24:49.947Z,44.90
2018-07-07T02:25:54.882Z,44.90
2018-07-07T02:26:59.812Z,44.90
2018-07-07T02:28:04.598Z,44.90
2018-07-07T02:29:09.471Z,44.80
2018-07-07T02:30:14.352Z,44.90
2018-07-07T02:31:19.142Z,45.60
2018-07-07T02:32:23.940Z,44.80
2018-07-07T02:33:28.793Z,45.00
2018-07-07T02:34:33.722Z,45.00
2018-07-07T02:35:38.493Z,45.00
2018-07-07T02:36:43.414Z,45.00
2018-07-07T02:37:48.172Z,45.00
2018-07-07T02:38:53.064Z,44.90
2018-07-07T02:39:57.978Z,44.90
2018-07-07T02:41:03.002Z,45.60
2018-07-07T02:42:08.004Z,45.00
2018-07-07T02:43:12.782Z,45.00
2018-07-07T02:44:18.015Z,45.00
2018-07-07T02:45:22.816Z,45.00
2018-07-07T02:46:27.815Z,45.10
2018-07-07T02:47:32.792Z,45.00
2018-07-07T02:48:37.755Z,45.00
2018-07-07T02:49:42.636Z,45.10
2018-07-07T02:50:47.592Z,45.00
2018-07-07T02:51:52.533Z,45.00
2018-07-07T02:52:57.478Z,45.70
2018-07-07T02:54:02.333Z,45.10
2018-07-07T02:55:07.157Z,45.00
2018-07-07T02:56:12.034Z,45.40
2018-07-07T02:57:16.959Z,45.10
2018-07-07T02:58:21.895Z,45.10
2018-07-07T02:59:26.822Z,45.10
2018-07-07T03:00:31.685Z,45.10
2018-07-07T03:01:36.510Z,45.10
2018-07-07T03:02:41.314Z,45.10
2018-07-07T03:03:46.183Z,45.10
2018-07-07T03:04:51.082Z,45.10
2018-07-07T03:05:56.058Z,45.10
2018-07-07T03:07:00.947Z,45.10
2018-07-07T03:08:05.723Z,45.10
2018-07-07T03:09:10.516Z,45.10
2018-07-07T03:10:15.334Z,45.10
2018-07-07T03:11:20.152Z,45.20
2018-07-07T03:12:25.138Z,45.20
2018-07-07T03:13:30.045Z,45.20
2018-07-07T03:14:34.993Z,45.20
2018-07-07T03:15:39.811Z,45.10
2018-07-07T03:16:44.726Z,45.10
2018-07-07T03:17:49.677Z,45.20
2018-07-07T03:18:54.461Z,45.10
2018-07-07T03:19:59.233Z,45.10
2018-07-07T03:21:04.211Z,45.20
2018-07-07T03:22:09.138Z,45.20
2018-07-07T03:23:14.058Z,45.20
2018-07-07T03:24:18.998Z,45.20
2018-07-07T03:25:23.966Z,45.20
2018-07-07T03:26:28.737Z,45.30
2018-07-07T03:27:33.661Z,45.20
2018-07-07T03:28:38.641Z,45.30
2018-07-07T03:29:43.417Z,45.30
2018-07-07T03:30:48.331Z,45.30
2018-07-07T03:31:53.169Z,45.30
2018-07-07T03:32:58.005Z,45.30
2018-07-07T03:34:02.971Z,45.30
2018-07-07T03:35:07.770Z,45.30
2018-07-07T03:36:12.581Z,45.20
2018-07-07T03:37:17.335Z,45.30
2018-07-07T03:38:22.353Z,45.30
2018-07-07T03:39:27.157Z,45.30
2018-07-07T03:40:32.150Z,45.30
2018-07-07T03:41:37.091Z,45.30
2018-07-07T03:42:42.032Z,45.30
2018-07-07T03:43:47.036Z,45.30
2018-07-07T03:44:51.986Z,45.30
2018-07-07T03:45:56.919Z,45.30
2018-07-07T03:47:01.750Z,45.30
2018-07-07T03:48:06.543Z,45.30
2018-07-07T03:49:11.336Z,45.40
2018-07-07T03:50:16.166Z,45.30
2018-07-07T03:51:21.021Z,45.30
2018-07-07T03:52:25.978Z,45.30
2018-07-07T03:53:30.968Z,45.30
2018-07-07T03:54:35.917Z,45.30
2018-07-07T03:55:40.826Z,45.40
2018-07-07T03:56:45.738Z,45.30
2018-07-07T03:57:50.495Z,45.40
2018-07-07T03:58:55.361Z,45.40
2018-07-07T04:00:00.312Z,45.40
2018-07-07T04:01:05.097Z,45.40
2018-07-07T04:02:10.121Z,45.40
2018-07-07T04:03:15.078Z,45.40
2018-07-07T04:04:19.904Z,45.40
2018-07-07T04:05:24.818Z,45.40
2018-07-07T04:06:29.827Z,45.40
2018-07-07T04:07:34.675Z,45.40
2018-07-07T04:08:39.504Z,45.40
2018-07-07T04:09:44.429Z,45.40
2018-07-07T04:10:49.235Z,45.40
2018-07-07T04:11:54.116Z,45.40
2018-07-07T04:12:58.878Z,45.50
2018-07-07T04:14:03.786Z,45.40
2018-07-07T04:15:08.678Z,45.50
2018-07-07T04:16:13.465Z,45.50
2018-07-07T04:17:18.436Z,45.50
2018-07-07T04:18:23.275Z,45.50
2018-07-07T04:19:28.197Z,45.50
2018-07-07T04:20:32.974Z,45.50
2018-07-07T04:21:37.857Z,45.50
2018-07-07T04:22:42.793Z,45.50
2018-07-07T04:23:47.702Z,45.50
2018-07-07T04:24:52.623Z,45.50
2018-07-07T04:25:57.572Z,45.50
2018-07-07T04:27:02.546Z,45.50
2018-07-07T04:28:07.389Z,45.50
2018-07-07T04:29:12.194Z,45.50
2018-07-07T04:30:17.440Z,45.50
2018-07-07T04:31:22.474Z,45.50
2018-07-07T04:32:27.324Z,45.50
2018-07-07T04:33:32.195Z,45.50
2018-07-07T04:34:37.007Z,45.50
2018-07-07T04:35:41.799Z,45.50
2018-07-07T04:36:46.812Z,45.50
2018-07-07T04:37:51.789Z,45.50
2018-07-07T04:38:56.920Z,45.50
2018-07-07T04:40:01.804Z,45.50
2018-07-07T04:41:06.626Z,45.50
2018-07-07T04:42:11.611Z,45.50
2018-07-07T04:43:16.482Z,45.50
2018-07-07T04:44:21.394Z,45.50
2018-07-07T04:45:26.401Z,45.50
2018-07-07T04:46:31.492Z,45.60
2018-07-07T04:47:36.652Z,45.50
2018-07-07T04:48:41.715Z,45.50
2018-07-07T04:49:46.682Z,45.60
2018-07-07T04:50:51.575Z,45.50
2018-07-07T04:51:56.534Z,45.50
2018-07-07T04:53:01.420Z,45.70
2018-07-07T04:54:06.328Z,45.60
2018-07-07T04:55:11.315Z,45.50
2018-07-07T04:56:16.229Z,45.50
2018-07-07T04:57:21.348Z,45.60
2018-07-07T04:58:26.198Z,45.60
2018-07-07T04:59:31.224Z,45.60
2018-07-07T05:00:36.094Z,45.70
2018-07-07T05:01:41.205Z,45.50
2018-07-07T05:02:46.270Z,45.60
2018-07-07T05:03:51.354Z,45.60
2018-07-07T05:04:56.498Z,45.60
2018-07-07T05:06:01.385Z,45.60
2018-07-07T05:07:06.395Z,45.40
2018-07-07T05:08:11.233Z,45.30
2018-07-07T05:09:16.045Z,45.20
2018-07-07T05:10:20.893Z,45.00
2018-07-07T05:11:25.731Z,45.10
2018-07-07T05:12:30.721Z,45.10
2018-07-07T05:13:35.750Z,44.90
2018-07-07T05:14:40.656Z,44.90
2018-07-07T05:15:45.605Z,44.90
2018-07-07T05:16:50.621Z,44.90
2018-07-07T05:17:55.565Z,44.90
2018-07-07T05:19:00.401Z,44.90
2018-07-07T05:20:05.342Z,44.90
2018-07-07T05:21:10.763Z,44.80
2018-07-07T05:22:15.722Z,44.80
2018-07-07T05:23:20.723Z,44.80
2018-07-07T05:24:25.542Z,44.80
2018-07-07T05:25:30.374Z,44.80
2018-07-07T05:26:35.219Z,44.80
2018-07-07T05:27:40.357Z,44.80
2018-07-07T05:28:45.284Z,44.80
2018-07-07T05:29:50.073Z,44.80
2018-07-07T05:30:55.087Z,44.80
2018-07-07T05:31:59.935Z,44.70
2018-07-07T05:33:04.751Z,44.80
2018-07-07T05:34:09.737Z,44.70
2018-07-07T05:35:14.708Z,44.60
2018-07-07T05:36:19.537Z,44.60
2018-07-07T05:37:24.524Z,44.60
2018-07-07T05:38:29.303Z,44.70
2018-07-07T05:39:34.259Z,44.60
2018-07-07T05:40:39.172Z,44.60
2018-07-07T05:41:43.910Z,44.60
2018-07-07T05:42:48.853Z,44.60
2018-07-07T05:43:53.706Z,44.70
2018-07-07T05:44:58.569Z,44.60
2018-07-07T05:46:03.274Z,44.60
2018-07-07T05:47:08.015Z,44.60
2018-07-07T05:48:12.900Z,44.60
2018-07-07T05:49:17.683Z,44.60
2018-07-07T05:50:22.416Z,44.60
2018-07-07T05:51:27.308Z,44.60
2018-07-07T05:52:32.069Z,44.60
2018-07-07T05:53:36.894Z,44.60
2018-07-07T05:54:41.673Z,44.60
2018-07-07T05:55:46.431Z,44.60
2018-07-07T05:56:51.426Z,44.60
2018-07-07T05:57:56.205Z,44.50
2018-07-07T05:59:00.936Z,44.50
2018-07-07T06:00:05.703Z,44.50
2018-07-07T06:01:10.606Z,44.50
2018-07-07T06:02:15.399Z,44.50
2018-07-07T06:03:20.381Z,44.50
2018-07-07T06:04:25.275Z,44.50
2018-07-07T06:05:30.223Z,44.50
2018-07-07T06:06:35.223Z,44.50
2018-07-07T06:07:40.202Z,44.50
2018-07-07T06:08:45.136Z,44.50
2018-07-07T06:09:50.034Z,44.50
2018-07-07T06:10:54.952Z,44.50
2018-07-07T06:11:59.950Z,44.50
2018-07-07T06:13:04.750Z,44.50
2018-07-07T06:14:09.740Z,44.50
2018-07-07T06:15:14.716Z,44.40
2018-07-07T06:16:19.488Z,44.40
2018-07-07T06:17:24.271Z,44.30
2018-07-07T06:18:29.117Z,44.30
2018-07-07T06:19:34.042Z,44.30
2018-07-07T06:20:38.812Z,44.30
2018-07-07T06:21:43.547Z,44.30
2018-07-07T06:22:48.286Z,44.30
2018-07-07T06:23:53.220Z,44.40
2018-07-07T06:24:58.342Z,44.30
2018-07-07T06:26:03.177Z,44.30
2018-07-07T06:27:08.123Z,44.30
2018-07-07T06:28:13.266Z,44.30
2018-07-07T06:29:18.271Z,44.20
2018-07-07T06:30:23.113Z,44.10
2018-07-07T06:31:28.245Z,44.20
2018-07-07T06:32:33.246Z,44.20
2018-07-07T06:33:38.139Z,44.10
2018-07-07T06:34:42.930Z,44.10
2018-07-07T06:35:47.648Z,44.10
2018-07-07T06:36:52.438Z,44.10
2018-07-07T06:37:57.225Z,44.00
2018-07-07T06:39:02.161Z,44.00
2018-07-07T06:40:07.230Z,44.10
2018-07-07T06:41:12.316Z,44.10
2018-07-07T06:42:17.222Z,44.70
2018-07-07T06:43:22.084Z,44.00
2018-07-07T06:44:26.847Z,44.00
2018-07-07T06:45:31.617Z,43.90
2018-07-07T06:46:36.473Z,43.90
2018-07-07T06:47:41.364Z,43.90
2018-07-07T06:48:46.225Z,44.00
2018-07-07T06:49:51.223Z,43.90
2018-07-07T06:50:56.048Z,43.90
2018-07-07T06:52:01.003Z,44.00
2018-07-07T06:53:05.909Z,44.00
2018-07-07T06:54:10.804Z,44.00
2018-07-07T06:55:15.569Z,44.00
2018-07-07T06:56:20.302Z,44.00
2018-07-07T06:57:25.055Z,44.00
2018-07-07T06:58:29.951Z,43.90
2018-07-07T06:59:34.733Z,43.90
2018-07-07T07:00:39.560Z,43.90
2018-07-07T07:01:44.619Z,43.90
2018-07-07T07:02:49.514Z,43.90
2018-07-07T07:03:54.364Z,43.90
2018-07-07T07:04:59.167Z,43.90
2018-07-07T07:06:04.133Z,43.90
2018-07-07T07:07:09.028Z,43.90
2018-07-07T07:08:13.812Z,43.90
2018-07-07T07:09:18.731Z,43.90
2018-07-07T07:10:23.727Z,43.90
2018-07-07T07:11:28.890Z,43.90
2018-07-07T07:12:33.684Z,43.90
2018-07-07T07:13:38.658Z,43.90
2018-07-07T07:14:43.490Z,43.90
2018-07-07T07:15:48.243Z,43.90
2018-07-07T07:16:53.117Z,44.00
2018-07-07T07:17:58.550Z,44.00
2018-07-07T07:19:03.474Z,43.90
2018-07-07T07:20:08.240Z,44.00
2018-07-07T07:21:13.126Z,43.90
2018-07-07T07:22:17.990Z,43.90
2018-07-07T07:23:22.838Z,43.90
2018-07-07T07:24:27.623Z,43.90
2018-07-07T07:25:32.472Z,43.90
2018-07-07T07:26:37.636Z,43.80
2018-07-07T07:27:42.529Z,43.80
2018-07-07T07:28:47.272Z,43.80
2018-07-07T07:29:52.207Z,43.80
2018-07-07T07:30:57.197Z,43.80
2018-07-07T07:32:01.982Z,43.80
2018-07-07T07:33:06.811Z,43.80
2018-07-07T07:34:11.732Z,43.70
2018-07-07T07:35:16.669Z,43.70
2018-07-07T07:36:21.519Z,43.70
2018-07-07T07:37:26.431Z,43.70
2018-07-07T07:38:31.263Z,43.70
2018-07-07T07:39:36.050Z,43.60
2018-07-07T07:40:40.903Z,43.70
2018-07-07T07:41:45.702Z,43.60
2018-07-07T07:42:50.474Z,43.60
2018-07-07T07:43:55.230Z,43.50
2018-07-07T07:45:00.124Z,43.50
2018-07-07T07:46:05.053Z,43.50
2018-07-07T07:47:09.953Z,43.50
2018-07-07T07:48:14.884Z,43.50
2018-07-07T07:49:19.813Z,43.40
2018-07-07T07:50:24.605Z,43.40
2018-07-07T07:51:29.460Z,43.40
2018-07-07T07:52:34.212Z,43.40
2018-07-07T07:53:39.102Z,43.40
2018-07-07T07:54:43.919Z,43.40
2018-07-07T07:55:48.825Z,43.30
2018-07-07T07:56:53.708Z,43.30
2018-07-07T07:57:58.647Z,43.30
2018-07-07T07:59:03.612Z,43.40
2018-07-07T08:00:08.427Z,43.40
2018-07-07T08:01:13.143Z,43.30
2018-07-07T08:02:18.024Z,43.30
2018-07-07T08:03:22.915Z,43.40
2018-07-07T08:04:27.677Z,43.40
2018-07-07T08:05:32.449Z,43.40
2018-07-07T08:06:37.193Z,43.30
2018-07-07T08:07:42.064Z,43.30
2018-07-07T08:08:46.848Z,43.40
2018-07-07T08:09:51.787Z,43.30
2018-07-07T08:10:56.651Z,43.30
2018-07-07T08:12:01.385Z,43.30
2018-07-07T08:13:06.139Z,43.40
2018-07-07T08:14:10.913Z,43.40
2018-07-07T08:15:15.966Z,43.30
2018-07-07T08:16:21.090Z,44.00
2018-07-07T08:17:26.223Z,43.50
2018-07-07T08:18:31.102Z,43.40
2018-07-07T08:19:35.874Z,43.40
2018-07-07T08:20:40.763Z,43.30
2018-07-07T08:21:45.517Z,43.40
2018-07-07T08:22:50.234Z,43.40
2018-07-07T08:23:55.085Z,43.40
2018-07-07T08:24:59.915Z,43.30
2018-07-07T08:26:04.675Z,43.20
2018-07-07T08:27:09.531Z,43.20
2018-07-07T08:28:14.487Z,43.10
2018-07-07T08:29:19.313Z,43.20
2018-07-07T08:30:24.136Z,43.00
2018-07-07T08:31:29.066Z,43.00
2018-07-07T08:32:33.949Z,43.00
2018-07-07T08:33:38.850Z,43.00
2018-07-07T08:34:43.665Z,42.90
2018-07-07T08:35:48.443Z,42.90
2018-07-07T08:36:53.349Z,42.80
2018-07-07T08:37:58.196Z,42.80
2018-07-07T08:39:03.114Z,42.80
2018-07-07T08:40:07.957Z,42.70
2018-07-07T08:41:12.830Z,42.70
2018-07-07T08:42:17.633Z,42.70
2018-07-07T08:43:22.381Z,42.70
2018-07-07T08:44:27.309Z,42.70
2018-07-07T08:45:32.181Z,42.70
2018-07-07T08:46:37.134Z,42.80
2018-07-07T08:47:41.906Z,42.80
2018-07-07T08:48:46.876Z,43.10
2018-07-07T08:49:51.971Z,42.80
2018-07-07T08:50:56.859Z,42.80
2018-07-07T08:52:01.842Z,42.90
2018-07-07T08:53:06.685Z,42.80
2018-07-07T08:54:11.444Z,42.90
2018-07-07T08:55:16.212Z,42.90
2018-07-07T08:56:21.008Z,42.80
2018-07-07T08:57:25.781Z,42.90
2018-07-07T08:58:30.543Z,42.90
2018-07-07T08:59:35.477Z,42.90
2018-07-07T09:00:40.384Z,42.90
2018-07-07T09:01:45.252Z,42.90
2018-07-07T09:02:50.050Z,42.90
2018-07-07T09:03:54.961Z,42.90
2018-07-07T09:04:59.738Z,42.90
2018-07-07T09:06:04.627Z,42.90
2018-07-07T09:07:09.514Z,42.90
2018-07-07T09:08:14.592Z,42.90
2018-07-07T09:09:19.498Z,43.00
2018-07-07T09:10:24.307Z,42.90
2018-07-07T09:11:29.159Z,42.90
2018-07-07T09:12:33.971Z,42.90
2018-07-07T09:13:38.814Z,42.80
2018-07-07T09:14:43.717Z,42.80
2018-07-07T09:15:48.627Z,42.70
2018-07-07T09:16:53.414Z,42.70
2018-07-07T09:17:58.314Z,42.70
2018-07-07T09:19:03.163Z,42.70
2018-07-07T09:20:08.134Z,42.70
2018-07-07T09:21:13.056Z,42.70
2018-07-07T09:22:18.006Z,42.70
2018-07-07T09:23:22.843Z,42.70
2018-07-07T09:24:27.961Z,42.70
2018-07-07T09:25:32.902Z,42.70
2018-07-07T09:26:37.693Z,42.70
2018-07-07T09:27:42.634Z,42.70
2018-07-07T09:28:47.606Z,42.70
2018-07-07T09:29:52.517Z,42.60
2018-07-07T09:30:57.354Z,42.60
2018-07-07T09:32:02.304Z,42.60
2018-07-07T09:33:07.194Z,42.60
2018-07-07T09:34:12.009Z,42.60
2018-07-07T09:35:16.759Z,42.60
2018-07-07T09:36:21.677Z,42.60
2018-07-07T09:37:26.652Z,42.60
2018-07-07T09:38:31.581Z,42.50
2018-07-07T09:39:36.536Z,42.60
2018-07-07T09:40:41.481Z,42.50
2018-07-07T09:41:46.254Z,42.50
2018-07-07T09:42:51.129Z,42.50
2018-07-07T09:43:56.118Z,42.60
2018-07-07T09:45:00.938Z,42.60
2018-07-07T09:46:05.909Z,42.70
2018-07-07T09:47:10.760Z,42.70
2018-07-07T09:48:15.694Z,42.70
2018-07-07T09:49:20.508Z,42.70
2018-07-07T09:50:25.271Z,42.60
2018-07-07T09:51:30.128Z,42.70
2018-07-07T09:52:35.045Z,42.70
2018-07-07T09:53:39.952Z,42.70
2018-07-07T09:54:44.810Z,42.70
2018-07-07T09:55:49.708Z,42.70
2018-07-07T09:56:54.496Z,42.70
2018-07-07T09:57:59.402Z,42.70
2018-07-07T09:59:04.293Z,42.70
2018-07-07T10:00:09.205Z,42.70
2018-07-07T10:01:14.098Z,42.70
2018-07-07T10:02:19.062Z,42.70
2018-07-07T10:03:23.864Z,42.70
2018-07-07T10:04:28.774Z,42.70
2018-07-07T10:05:33.787Z,42.70
2018-07-07T10:06:38.524Z,42.50
2018-07-07T10:07:43.404Z,42.50
2018-07-07T10:08:48.231Z,42.50
2018-07-07T10:09:52.958Z,42.50
2018-07-07T10:10:58.313Z,42.50
2018-07-07T10:12:03.222Z,42.70
2018-07-07T10:13:08.088Z,42.40
2018-07-07T10:14:13.007Z,42.40
2018-07-07T10:15:18.086Z,42.40
2018-07-07T10:16:22.908Z,42.40
2018-07-07T10:17:27.984Z,42.40
2018-07-07T10:18:32.774Z,42.40
2018-07-07T10:19:37.696Z,42.40
2018-07-07T10:20:42.709Z,42.40
2018-07-07T10:21:47.660Z,42.40
2018-07-07T10:22:52.502Z,42.50
2018-07-07T10:23:57.402Z,42.50
2018-07-07T10:25:02.369Z,42.50
2018-07-07T10:26:08.257Z,42.50
2018-07-07T10:27:14.623Z,42.50
2018-07-07T10:28:20.578Z,42.50
2018-07-07T10:29:26.038Z,42.50
2018-07-07T10:30:31.013Z,42.50
2018-07-07T10:31:36.510Z,42.40
2018-07-07T10:32:41.978Z,42.40
2018-07-07T10:33:47.477Z,42.30
2018-07-07T10:34:53.369Z,42.30
2018-07-07T10:35:58.959Z,42.30
2018-07-07T10:37:04.832Z,42.30
2018-07-07T10:38:10.665Z,42.30
2018-07-07T10:39:16.456Z,42.30
2018-07-07T10:40:22.291Z,42.30
2018-07-07T10:41:28.231Z,42.30
2018-07-07T10:42:34.275Z,42.20
2018-07-07T10:43:40.537Z,42.20
2018-07-07T10:44:46.766Z,42.20
2018-07-07T10:45:55.120Z,42.10
2018-07-07T10:47:02.356Z,42.10
2018-07-07T10:48:09.019Z,42.20
2018-07-07T10:49:15.683Z,42.20
2018-07-07T10:50:21.858Z,42.10
2018-07-07T10:51:28.080Z,42.20
2018-07-07T10:52:34.132Z,42.10
2018-07-07T10:53:40.674Z,42.00
2018-07-07T10:54:46.740Z,42.10
2018-07-07T10:55:52.835Z,42.00
2018-07-07T10:56:58.733Z,42.10
2018-07-07T10:58:04.444Z,42.00
2018-07-07T10:59:10.222Z,42.10
2018-07-07T11:00:15.938Z,42.00
2018-07-07T11:01:26.705Z,42.00
2018-07-07T11:02:34.289Z,42.10
2018-07-07T11:03:41.226Z,42.00
2018-07-07T11:04:47.101Z,42.10
2018-07-07T11:05:53.286Z,42.10
2018-07-07T11:06:59.315Z,42.10
2018-07-07T11:08:11.820Z,42.20
2018-07-07T11:09:19.009Z,42.20
2018-07-07T11:10:26.052Z,42.20
2018-07-07T11:11:32.480Z,42.20
2018-07-07T11:12:38.177Z,42.20
2018-07-07T11:13:44.235Z,42.20
2018-07-07T11:14:50.053Z,42.20
2018-07-07T11:15:55.937Z,42.20
2018-07-07T11:17:02.303Z,42.20
2018-07-07T11:18:08.422Z,42.20
2018-07-07T11:19:14.409Z,42.20
2018-07-07T11:20:20.210Z,42.20
2018-07-07T11:21:25.825Z,42.20
2018-07-07T11:22:31.825Z,42.20
2018-07-07T11:23:37.485Z,42.30
2018-07-07T11:24:43.239Z,42.20
2018-07-07T11:25:48.947Z,42.20
2018-07-07T11:26:54.694Z,42.20
2018-07-07T11:28:00.239Z,42.20
2018-07-07T11:29:05.972Z,42.20
2018-07-07T11:30:11.627Z,42.20
2018-07-07T11:31:17.306Z,42.20
2018-07-07T11:32:23.139Z,42.20
2018-07-07T11:33:28.723Z,42.20
2018-07-07T11:34:34.511Z,42.20
2018-07-07T11:35:40.329Z,42.20
2018-07-07T11:36:46.194Z,42.20
2018-07-07T11:37:52.815Z,42.20
2018-07-07T11:38:57.692Z,42.20
2018-07-07T11:40:02.654Z,42.20
2018-07-07T11:41:08.122Z,42.20
2018-07-07T11:42:14.114Z,42.20
2018-07-07T11:43:19.898Z,42.20
2018-07-07T11:44:25.650Z,42.20
2018-07-07T11:45:31.380Z,42.20
2018-07-07T11:46:36.561Z,42.20
2018-07-07T11:47:41.828Z,42.20
2018-07-07T11:48:47.799Z,42.20
2018-07-07T11:49:55.196Z,42.30
2018-07-07T11:51:00.448Z,42.20
2018-07-07T11:52:06.182Z,42.30
2018-07-07T11:53:11.973Z,42.30
2018-07-07T11:54:17.477Z,42.30
2018-07-07T11:55:23.156Z,42.30
2018-07-07T11:56:28.465Z,42.30
2018-07-07T11:57:34.181Z,42.30
2018-07-07T11:58:39.956Z,42.30
2018-07-07T11:59:45.151Z,42.30
2018-07-07T12:00:50.765Z,42.30
2018-07-07T12:01:56.639Z,42.30
2018-07-07T12:03:02.727Z,42.30
2018-07-07T12:04:08.732Z,42.30
2018-07-07T12:05:14.501Z,42.40
2018-07-07T12:06:20.374Z,42.40
2018-07-07T12:07:26.263Z,42.30
2018-07-07T12:08:32.577Z,42.30
2018-07-07T12:09:38.413Z,42.30
2018-07-07T12:10:44.338Z,42.30
2018-07-07T12:11:50.337Z,42.30
2018-07-07T12:12:58.040Z,42.30
2018-07-07T12:14:04.024Z,42.30
2018-07-07T12:15:09.866Z,42.30
2018-07-07T12:16:16.016Z,42.40
2018-07-07T12:17:21.145Z,42.30
2018-07-07T12:18:26.740Z,42.30
2018-07-07T12:19:32.537Z,42.30
2018-07-07T12:20:37.737Z,42.30
2018-07-07T12:21:43.380Z,42.40
2018-07-07T12:22:48.838Z,42.40
2018-07-07T12:23:54.485Z,42.40
2018-07-07T12:25:00.213Z,42.90
2018-07-07T12:26:06.163Z,42.90
2018-07-07T12:27:12.026Z,42.70
2018-07-07T12:28:17.856Z,42.60
2018-07-07T12:29:23.524Z,42.60
2018-07-07T12:30:29.252Z,42.50
2018-07-07T12:31:34.994Z,42.50
2018-07-07T12:32:40.963Z,42.50
2018-07-07T12:33:46.921Z,42.50
2018-07-07T12:34:52.633Z,42.50
2018-07-07T12:35:58.586Z,42.50
2018-07-07T12:37:05.063Z,42.50
2018-07-07T12:38:10.524Z,42.50
2018-07-07T12:39:16.274Z,42.50
2018-07-07T12:40:27.132Z,42.30
2018-07-07T12:41:51.842Z,42.40
2018-07-07T12:42:58.247Z,42.40
2018-07-07T12:44:04.896Z,42.40
2018-07-07T12:45:11.000Z,42.50
2018-07-07T12:46:16.985Z,42.50
2018-07-07T12:47:22.803Z,42.40
2018-07-07T12:48:28.959Z,42.50
2018-07-07T12:49:34.944Z,42.60
2018-07-07T12:50:40.842Z,42.50
2018-07-07T12:51:47.119Z,42.60
2018-07-07T12:52:53.127Z,42.60
2018-07-07T12:53:59.199Z,42.80
2018-07-07T12:55:05.043Z,42.70
2018-07-07T12:56:10.870Z,42.60
2018-07-07T12:57:16.454Z,42.70
2018-07-07T12:58:22.296Z,42.60
2018-07-07T12:59:28.088Z,42.70
2018-07-07T13:00:33.833Z,42.70
2018-07-07T13:01:39.566Z,42.80
2018-07-07T13:02:46.094Z,42.80
2018-07-07T13:03:52.008Z,42.80
2018-07-07T13:04:57.570Z,42.80
2018-07-07T13:06:03.571Z,42.80
2018-07-07T13:07:09.318Z,42.90
2018-07-07T13:08:15.135Z,42.80
2018-07-07T13:09:21.012Z,42.80
2018-07-07T13:10:26.842Z,42.70
2018-07-07T13:11:32.949Z,42.70
2018-07-07T13:12:38.766Z,42.70
2018-07-07T13:13:44.713Z,42.80
2018-07-07T13:14:50.681Z,42.80
2018-07-07T13:15:57.030Z,42.80
2018-07-07T13:17:03.008Z,42.90
2018-07-07T13:18:08.783Z,43.00
2018-07-07T13:19:14.693Z,43.00
2018-07-07T13:20:20.494Z,43.00
2018-07-07T13:21:26.305Z,42.90
2018-07-07T13:22:32.250Z,42.90
2018-07-07T13:23:38.082Z,42.90
2018-07-07T13:24:43.924Z,42.90
2018-07-07T13:25:50.006Z,42.90
2018-07-07T13:26:56.945Z,42.80
2018-07-07T13:28:14.185Z,42.80
2018-07-07T13:29:22.089Z,42.80
2018-07-07T13:30:27.229Z,43.50
2018-07-07T13:31:32.213Z,42.90
2018-07-07T13:32:37.311Z,42.90
2018-07-07T13:33:42.510Z,42.90
2018-07-07T13:34:47.588Z,42.80
2018-07-07T13:35:52.513Z,42.80
2018-07-07T13:36:58.276Z,43.50
2018-07-07T13:38:04.095Z,42.80
2018-07-07T13:39:10.912Z,42.90
2018-07-07T13:40:16.035Z,42.90
2018-07-07T13:41:21.001Z,42.90
2018-07-07T13:42:26.752Z,42.90
2018-07-07T13:43:32.696Z,42.80
2018-07-07T13:44:38.384Z,42.70
2018-07-07T13:45:43.633Z,42.90
2018-07-07T13:46:49.557Z,42.80
2018-07-07T13:47:55.654Z,42.80
2018-07-07T13:49:01.750Z,42.80
2018-07-07T13:50:07.051Z,42.90
2018-07-07T13:51:12.066Z,42.80
2018-07-07T13:52:17.207Z,42.90
2018-07-07T13:53:22.742Z,42.90
2018-07-07T13:54:28.385Z,42.90
2018-07-07T13:55:33.603Z,42.90
2018-07-07T13:56:38.584Z,42.80
2018-07-07T13:57:43.735Z,43.50
2018-07-07T13:58:48.905Z,42.80
2018-07-07T13:59:54.024Z,42.90